createdAt,value
2019-04-10T00:01:42.336Z,69.74
2019-04-10T00:03:50.574Z,69.77
2019-04-10T00:05:58.333Z,69.79
2019-04-10T00:08:06.181Z,69.96
2019-04-10T00:10:13.928Z,70.00
2019-04-10T00:12:21.235Z,70.14
2019-04-10T00:14:28.273Z,70.19
2019-04-10T00:16:36.121Z,70.17
2019-04-10T00:18:42.616Z,70.23
2019-04-10T00:20:49.457Z,70.25
2019-04-10T00:22:56.460Z,70.41
2019-04-10T00:25:04.225Z,70.44
2019-04-10T00:27:10.923Z,70.37
2019-04-10T00:29:18.238Z,70.42
2019-04-10T00:31:26.351Z,70.46
2019-04-10T00:33:33.193Z,70.43
2019-04-10T00:35:40.402Z,70.54
2019-04-10T00:37:49.150Z,70.68
2019-04-10T00:39:55.764Z,70.79
2019-04-10T00:42:03.064Z,70.84
2019-04-10T00:44:11.100Z,70.85
2019-04-10T00:46:17.864Z,70.86
2019-04-10T00:48:24.479Z,71.03
2019-04-10T00:50:30.942Z,71.04
2019-04-10T00:52:38.577Z,70.97
2019-04-10T00:54:46.856Z,71.23
2019-04-10T00:56:53.522Z,71.14
2019-04-10T00:59:00.491Z,71.28
2019-04-10T01:01:08.393Z,71.22
2019-04-10T01:03:17.634Z,71.39
2019-04-10T01:05:24.874Z,71.49
2019-04-10T01:07:37.575Z,71.54
2019-04-10T01:09:39.688Z,71.65
2019-04-10T01:11:46.147Z,71.53
2019-04-10T01:13:54.438Z,71.50
2019-04-10T01:16:01.222Z,71.58
2019-04-10T01:18:07.805Z,71.66
2019-04-10T01:20:15.574Z,71.66
2019-04-10T01:22:23.924Z,71.63
2019-04-10T01:24:31.091Z,71.63
2019-04-10T01:26:39.581Z,71.75
2019-04-10T01:28:46.817Z,71.86
2019-04-10T01:30:54.942Z,71.80
2019-04-10T01:33:01.437Z,71.77
2019-04-10T01:35:09.828Z,71.84
2019-04-10T01:37:16.666Z,71.86
2019-04-10T01:39:25.034Z,71.92
2019-04-10T01:41:32.708Z,71.84
2019-04-10T01:43:41.229Z,71.92
2019-04-10T01:45:50.155Z,72.31
2019-04-10T01:47:57.029Z,72.25
2019-04-10T01:50:06.260Z,72.43
2019-04-10T01:52:13.017Z,72.59
2019-04-10T01:54:20.007Z,72.72
2019-04-10T01:56:31.744Z,72.80
2019-04-10T01:58:35.096Z,72.94
2019-04-10T02:00:44.420Z,73.14
2019-04-10T02:02:56.950Z,73.31
2019-04-10T02:05:06.747Z,73.39
2019-04-10T02:07:13.896Z,73.57
2019-04-10T02:09:21.287Z,73.75
2019-04-10T02:11:28.100Z,73.89
2019-04-10T02:13:35.787Z,73.83
2019-04-10T02:15:44.043Z,74.03
2019-04-10T02:17:50.892Z,73.94
2019-04-10T02:19:57.345Z,74.07
2019-04-10T02:22:06.690Z,74.02
2019-04-10T02:24:13.359Z,74.20
2019-04-10T02:26:20.023Z,74.42
2019-04-10T02:28:29.132Z,74.25
2019-04-10T02:30:37.333Z,74.34
2019-04-10T02:32:50.209Z,74.24
2019-04-10T02:34:57.365Z,74.17
2019-04-10T02:37:10.851Z,74.15
2019-04-10T02:39:27.526Z,74.13
2019-04-10T02:41:27.916Z,74.37
2019-04-10T02:43:35.915Z,74.40
2019-04-10T02:45:44.458Z,74.25
2019-04-10T02:47:52.824Z,74.13
2019-04-10T02:50:00.699Z,74.24
2019-04-10T02:52:08.822Z,74.12
2019-04-10T02:54:17.556Z,74.18
2019-04-10T02:56:25.394Z,74.12
2019-04-10T02:58:32.414Z,74.28
2019-04-10T03:00:39.502Z,74.27
2019-04-10T03:02:47.900Z,74.32
2019-04-10T03:04:55.306Z,74.50
2019-04-10T03:07:02.157Z,74.54
2019-04-10T03:09:28.165Z,74.61
2019-04-10T03:11:20.054Z,74.63
2019-04-10T03:13:28.891Z,74.72
2019-04-10T03:15:36.053Z,74.88
2019-04-10T03:17:43.996Z,74.83
2019-04-10T03:19:52.238Z,74.94
2019-04-10T03:22:00.347Z,74.99
2019-04-10T03:24:07.583Z,75.03
2019-04-10T03:26:15.315Z,75.15
2019-04-10T03:28:22.943Z,75.09
2019-04-10T03:30:31.501Z,75.27
2019-04-10T03:32:48.545Z,75.33
2019-04-10T03:34:54.983Z,75.25
2019-04-10T03:37:02.783Z,75.37
2019-04-10T03:39:10.787Z,75.34
2019-04-10T03:41:17.792Z,75.36
2019-04-10T03:43:24.497Z,75.52
2019-04-10T03:45:30.910Z,75.58
2019-04-10T03:47:37.666Z,75.47
2019-04-10T03:49:44.457Z,75.65
2019-04-10T03:51:51.111Z,75.71
2019-04-10T03:54:00.320Z,75.76
2019-04-10T03:56:07.544Z,75.56
2019-04-10T03:58:14.102Z,75.54
2019-04-10T04:00:21.102Z,75.60
2019-04-10T04:02:27.548Z,75.43
2019-04-10T04:04:34.455Z,75.43
2019-04-10T04:06:42.011Z,75.42
2019-04-10T04:09:01.672Z,75.48
2019-04-10T04:10:57.798Z,75.46
2019-04-10T04:13:06.532Z,75.19
2019-04-10T04:15:13.912Z,74.93
2019-04-10T04:17:22.511Z,74.60
2019-04-10T04:19:30.966Z,74.29
2019-04-10T04:21:41.892Z,73.81
2019-04-10T04:23:48.381Z,73.45
2019-04-10T04:25:56.840Z,72.95
2019-04-10T04:28:03.231Z,72.63
2019-04-10T04:30:12.394Z,71.95
2019-04-10T04:32:19.680Z,71.52
2019-04-10T04:34:27.229Z,70.95
2019-04-10T04:39:39.695Z,70.21
2019-04-10T04:41:46.353Z,69.93
2019-04-10T04:43:53.403Z,69.60
2019-04-10T04:45:59.675Z,69.32
2019-04-10T04:48:11.993Z,69.22
2019-04-10T04:50:18.338Z,69.13
2019-04-10T04:52:25.843Z,68.40
2019-04-10T04:54:33.002Z,68.22
2019-04-10T04:56:40.030Z,68.10
2019-04-10T04:58:47.537Z,67.90
2019-04-10T05:00:54.416Z,68.02
2019-04-10T05:03:01.882Z,67.99
2019-04-10T05:05:09.327Z,67.97
2019-04-10T05:07:16.808Z,67.60
2019-04-10T05:09:31.108Z,67.10
2019-04-10T05:11:31.805Z,67.12
2019-04-10T05:13:38.459Z,67.20
2019-04-10T05:15:45.139Z,67.27
2019-04-10T05:17:54.153Z,67.19
2019-04-10T05:20:00.894Z,66.62
2019-04-10T05:22:08.027Z,66.39
2019-04-10T05:24:17.771Z,66.45
2019-04-10T05:26:26.485Z,65.92
2019-04-10T05:28:34.299Z,66.26
2019-04-10T05:30:41.455Z,66.27
2019-04-10T05:32:47.927Z,66.37
2019-04-10T05:34:54.622Z,66.41
2019-04-10T05:37:01.175Z,66.37
2019-04-10T05:39:10.482Z,66.58
2019-04-10T05:41:17.773Z,66.41
2019-04-10T05:43:24.456Z,66.59
2019-04-10T05:45:32.546Z,66.40
2019-04-10T05:47:40.655Z,66.36
2019-04-10T05:49:47.319Z,66.52
2019-04-10T05:51:53.973Z,66.34
2019-04-10T05:54:00.234Z,66.61
2019-04-10T05:56:09.882Z,66.18
2019-04-10T05:58:17.433Z,66.41
2019-04-10T06:00:24.998Z,66.63
2019-04-10T06:02:32.262Z,66.30
2019-04-10T06:04:38.720Z,66.21
2019-04-10T06:06:46.503Z,66.25
2019-04-10T06:08:54.397Z,65.48
2019-04-10T06:11:00.785Z,65.86
2019-04-10T06:13:07.570Z,65.53
2019-04-10T06:15:14.820Z,65.66
2019-04-10T06:17:23.115Z,65.48
2019-04-10T06:19:29.892Z,64.95
2019-04-10T06:21:39.525Z,65.01
2019-04-10T06:23:49.837Z,64.51
2019-04-10T06:25:58.447Z,64.11
2019-04-10T06:28:05.336Z,64.17
2019-04-10T06:30:13.320Z,64.39
2019-04-10T06:32:19.654Z,64.19
2019-04-10T06:34:26.579Z,64.10
2019-04-10T06:36:33.418Z,64.09
2019-04-10T06:38:41.273Z,63.04
2019-04-10T06:40:48.247Z,62.99
2019-04-10T06:42:57.672Z,63.32
2019-04-10T06:45:07.246Z,62.89
2019-04-10T06:47:14.034Z,62.92
2019-04-10T06:49:20.805Z,63.04
2019-04-10T06:51:27.374Z,63.14
2019-04-10T06:53:35.190Z,63.15
2019-04-10T06:55:42.665Z,63.10
2019-04-10T06:57:55.778Z,63.16
2019-04-10T07:00:00.543Z,63.10
2019-04-10T07:02:19.488Z,63.96
2019-04-10T07:04:21.019Z,62.65
2019-04-10T07:06:39.339Z,62.25
2019-04-10T07:08:32.403Z,63.07
2019-04-10T07:10:48.257Z,61.53
2019-04-10T07:12:51.339Z,60.94
2019-04-10T07:14:58.348Z,61.34
2019-04-10T07:17:08.901Z,60.60
2019-04-10T07:19:15.739Z,60.47
2019-04-10T07:21:24.284Z,59.99
2019-04-10T07:23:33.786Z,59.86
2019-04-10T07:25:44.451Z,59.39
2019-04-10T07:27:48.598Z,59.13
2019-04-10T07:29:59.760Z,58.59
2019-04-10T07:32:09.636Z,58.73
2019-04-10T07:34:19.997Z,58.31
2019-04-10T07:36:24.611Z,57.92
2019-04-10T07:38:31.164Z,57.61
2019-04-10T07:40:38.650Z,57.51
2019-04-10T07:42:46.259Z,57.90
2019-04-10T07:44:56.271Z,58.06
2019-04-10T07:47:01.230Z,57.78
2019-04-10T07:49:08.526Z,57.58
2019-04-10T07:51:15.280Z,57.61
2019-04-10T07:53:22.898Z,57.67
2019-04-10T07:55:30.835Z,57.40
2019-04-10T07:57:38.396Z,57.97
2019-04-10T07:59:45.448Z,57.64
2019-04-10T08:01:58.069Z,57.24
2019-04-10T08:04:06.227Z,56.83
2019-04-10T08:06:13.194Z,56.93
2019-04-10T08:08:21.470Z,55.89
2019-04-10T08:10:28.432Z,55.30
2019-04-10T08:12:44.899Z,55.10
2019-04-10T08:14:44.109Z,55.02
2019-04-10T08:16:51.864Z,54.69
2019-04-10T08:18:59.683Z,53.79
2019-04-10T08:21:07.115Z,52.50
2019-04-10T08:23:17.560Z,52.04
2019-04-10T08:25:33.285Z,51.52
2019-04-10T08:27:41.962Z,52.70
2019-04-10T08:29:50.638Z,51.77
2019-04-10T08:31:59.201Z,51.11
2019-04-10T08:34:07.419Z,51.28
2019-04-10T08:36:21.651Z,50.63
2019-04-10T08:38:32.299Z,50.07
2019-04-10T08:40:43.862Z,49.82
2019-04-10T08:42:51.324Z,50.83
2019-04-10T08:44:58.181Z,50.39
2019-04-10T08:47:04.878Z,50.76
2019-04-10T08:49:12.611Z,50.52
2019-04-10T08:51:21.363Z,50.49
2019-04-10T08:53:28.775Z,50.50
2019-04-10T08:55:36.298Z,51.10
2019-04-10T08:57:43.833Z,50.54
2019-04-10T08:59:51.981Z,50.81
2019-04-10T09:01:58.376Z,50.87
2019-04-10T09:04:05.746Z,50.29
2019-04-10T09:06:13.274Z,50.39
2019-04-10T09:08:21.694Z,49.89
2019-04-10T09:10:28.407Z,49.74
2019-04-10T09:12:35.222Z,50.38
2019-04-10T09:14:41.871Z,50.14
2019-04-10T09:16:51.052Z,50.07
2019-04-10T09:18:58.379Z,49.56
2019-04-10T09:21:06.898Z,49.74
2019-04-10T09:23:25.129Z,49.46
2019-04-10T09:25:27.027Z,50.11
2019-04-10T09:27:34.361Z,49.96
2019-04-10T09:29:42.571Z,49.53
2019-04-10T09:31:50.243Z,49.47
2019-04-10T09:33:57.350Z,49.08
2019-04-10T09:36:05.805Z,49.49
2019-04-10T09:38:12.737Z,49.24
2019-04-10T09:40:20.399Z,48.88
2019-04-10T09:42:27.752Z,48.64
2019-04-10T09:44:34.480Z,48.44
2019-04-10T09:46:40.954Z,49.37
2019-04-10T09:48:47.734Z,48.93
2019-04-10T09:50:54.501Z,48.78
2019-04-10T09:53:02.081Z,46.48
2019-04-10T09:55:09.215Z,46.58
2019-04-10T09:57:15.643Z,46.75
2019-04-10T09:59:33.012Z,46.91
2019-04-10T10:01:31.035Z,46.05
2019-04-10T10:03:38.096Z,46.13
2019-04-10T10:05:45.019Z,46.40
2019-04-10T10:07:53.616Z,45.90
2019-04-10T10:10:01.257Z,46.57
2019-04-10T10:12:11.677Z,47.04
2019-04-10T10:14:18.892Z,47.32
2019-04-10T10:16:27.492Z,47.33
2019-04-10T10:18:37.330Z,46.71
2019-04-10T10:20:46.011Z,46.66
2019-04-10T10:22:57.707Z,47.46
2019-04-10T10:25:09.380Z,46.69
2019-04-10T10:27:16.246Z,46.72
2019-04-10T10:29:23.798Z,46.07
2019-04-10T10:31:32.476Z,45.78
2019-04-10T10:33:42.981Z,45.18
2019-04-10T10:35:51.554Z,46.03
2019-04-10T10:38:19.057Z,45.86
2019-04-10T10:40:25.867Z,47.13
2019-04-10T10:42:33.765Z,47.30
2019-04-10T10:44:40.633Z,46.75
2019-04-10T10:46:49.492Z,47.36
2019-04-10T10:48:58.424Z,47.21
2019-04-10T10:51:07.222Z,47.00
2019-04-10T10:53:16.354Z,47.30
2019-04-10T10:55:23.308Z,47.72
2019-04-10T10:57:31.193Z,47.92
2019-04-10T10:59:41.784Z,47.42
2019-04-10T11:01:51.933Z,47.31
2019-04-10T11:03:58.900Z,47.52
2019-04-10T11:06:06.619Z,47.94
2019-04-10T11:08:15.289Z,48.38
2019-04-10T11:10:27.452Z,49.72
2019-04-10T11:12:42.361Z,50.65
2019-04-10T11:14:56.182Z,51.14
2019-04-10T11:17:05.385Z,50.59
2019-04-10T11:19:13.056Z,50.52
2019-04-10T11:21:20.607Z,50.77
2019-04-10T11:23:30.445Z,50.37
2019-04-10T11:25:40.151Z,50.76
2019-04-10T11:27:47.846Z,51.77
2019-04-10T11:29:55.053Z,52.12
2019-04-10T11:32:02.273Z,51.92
2019-04-10T11:34:09.965Z,52.12
2019-04-10T11:38:33.550Z,53.31
2019-04-10T11:40:41.974Z,52.75
2019-04-10T11:42:49.073Z,51.47
2019-04-10T11:44:55.563Z,50.94
2019-04-10T11:47:02.888Z,50.88
2019-04-10T11:49:13.821Z,51.18
2019-04-10T11:51:20.862Z,51.67
2019-04-10T11:53:27.458Z,51.98
2019-04-10T11:55:43.878Z,51.88
2019-04-10T11:57:49.012Z,51.72
2019-04-10T11:59:56.952Z,51.64
2019-04-10T12:02:06.490Z,51.75
2019-04-10T12:04:14.122Z,52.11
2019-04-10T12:06:25.256Z,51.72
2019-04-10T12:12:49.942Z,51.58
2019-04-10T12:14:57.237Z,52.29
2019-04-10T12:17:05.377Z,52.47
2019-04-10T12:19:13.653Z,52.39
2019-04-10T12:21:20.497Z,52.68
2019-04-10T12:23:29.231Z,50.96
2019-04-10T12:25:36.645Z,51.13
2019-04-10T12:27:45.630Z,50.90
2019-04-10T12:29:55.124Z,50.94
2019-04-10T12:32:01.717Z,50.17
2019-04-10T12:34:11.495Z,51.09
2019-04-10T12:36:18.348Z,50.80
2019-04-10T12:38:25.578Z,50.76
2019-04-10T12:40:33.663Z,50.81
2019-04-10T12:42:40.673Z,50.04
2019-04-10T12:44:47.303Z,50.27
2019-04-10T12:46:55.705Z,49.90
2019-04-10T12:49:03.752Z,49.18
2019-04-10T12:51:11.899Z,50.00
2019-04-10T12:53:19.129Z,48.67
2019-04-10T12:55:28.238Z,49.43
2019-04-10T12:57:35.661Z,49.96
2019-04-10T12:59:42.407Z,50.02
2019-04-10T13:01:51.104Z,49.96
2019-04-10T13:03:59.862Z,49.42
2019-04-10T13:06:07.954Z,50.28
2019-04-10T13:08:25.646Z,50.22
2019-04-10T13:10:34.197Z,49.47
2019-04-10T13:12:45.303Z,48.96
2019-04-10T13:14:57.000Z,49.32
2019-04-10T13:17:06.715Z,49.47
2019-04-10T13:19:13.720Z,49.49
2019-04-10T13:21:24.834Z,50.25
2019-04-10T13:23:31.664Z,50.84
2019-04-10T13:25:40.760Z,50.87
2019-04-10T13:27:48.469Z,50.51
2019-04-10T13:29:57.439Z,50.17
2019-04-10T13:32:05.197Z,49.29
2019-04-10T13:34:18.196Z,49.78
2019-04-10T13:36:24.280Z,50.31
2019-04-10T13:38:36.826Z,50.59
2019-04-10T13:40:43.811Z,50.68
2019-04-10T13:42:51.506Z,49.56
2019-04-10T13:44:59.266Z,48.92
2019-04-10T13:47:07.030Z,49.67
2019-04-10T13:49:14.631Z,50.76
2019-04-10T13:51:21.989Z,50.73
2019-04-10T13:53:30.018Z,49.09
2019-04-10T13:55:37.015Z,48.76
2019-04-10T13:57:44.512Z,48.57
2019-04-10T13:59:53.278Z,48.12
2019-04-10T14:02:02.701Z,48.42
2019-04-10T14:04:11.136Z,47.82
2019-04-10T14:06:19.316Z,48.28
2019-04-10T14:08:40.466Z,47.93
2019-04-10T14:10:35.324Z,47.79
2019-04-10T14:12:43.023Z,47.00
2019-04-10T14:14:51.037Z,45.25
2019-04-10T14:16:59.263Z,45.44
2019-04-10T14:19:07.755Z,45.23
2019-04-10T14:21:17.348Z,45.28
2019-04-10T14:23:31.431Z,45.34
2019-04-10T14:25:42.712Z,44.97
2019-04-10T14:27:49.567Z,45.47
2019-04-10T14:29:56.777Z,45.84
2019-04-10T14:32:05.657Z,46.36
2019-04-10T14:34:12.517Z,46.57
2019-04-10T14:36:20.997Z,46.98
2019-04-10T14:38:28.941Z,46.98
2019-04-10T14:40:37.911Z,46.28
2019-04-10T14:42:44.752Z,46.25
2019-04-10T14:44:55.102Z,46.04
2019-04-10T14:47:02.308Z,46.05
2019-04-10T14:49:09.056Z,46.43
2019-04-10T14:51:16.503Z,46.28
2019-04-10T14:53:23.316Z,45.75
2019-04-10T14:55:33.453Z,45.79
2019-04-10T14:57:45.541Z,45.77
2019-04-10T14:59:52.552Z,46.43
2019-04-10T15:02:02.284Z,46.42
2019-04-10T15:04:10.922Z,46.03
2019-04-10T15:06:20.521Z,45.88
2019-04-10T15:08:27.971Z,46.00
2019-04-10T15:10:35.843Z,45.81
2019-04-10T15:12:45.793Z,45.57
2019-04-10T15:14:54.893Z,45.43
2019-04-10T15:17:04.500Z,45.63
2019-04-10T15:19:10.694Z,45.12
2019-04-10T15:21:18.581Z,44.54
2019-04-10T15:23:27.432Z,44.58
2019-04-10T15:25:35.271Z,44.56
2019-04-10T15:27:44.567Z,44.53
2019-04-10T15:29:54.709Z,44.73
2019-04-10T15:32:04.231Z,44.40
2019-04-10T15:34:14.055Z,45.01
2019-04-10T15:36:22.066Z,45.34
2019-04-10T15:38:30.300Z,45.60
2019-04-10T15:40:39.427Z,45.72
2019-04-10T15:42:48.489Z,45.87
2019-04-10T15:44:58.734Z,45.76
2019-04-10T15:47:15.831Z,45.22
2019-04-10T15:49:22.897Z,45.60
2019-04-10T15:51:30.361Z,45.26
2019-04-10T15:53:37.082Z,45.28
2019-04-10T15:55:45.317Z,45.64
2019-04-10T15:57:55.227Z,45.58
2019-04-10T16:00:00.950Z,45.90
2019-04-10T16:02:08.315Z,46.15
2019-04-10T16:04:15.243Z,46.52
2019-04-10T16:06:22.982Z,46.37
2019-04-10T16:08:29.898Z,46.67
2019-04-10T16:10:41.860Z,46.72
2019-04-10T16:12:49.881Z,46.75
2019-04-10T16:14:57.067Z,46.31
2019-04-10T16:17:08.761Z,45.99
2019-04-10T16:19:20.850Z,46.22
2019-04-10T16:21:29.806Z,46.21
2019-04-10T16:23:44.144Z,46.61
2019-04-10T16:25:58.652Z,46.50
2019-04-10T16:28:08.306Z,46.93
2019-04-10T16:30:20.141Z,47.07
2019-04-10T16:32:28.626Z,47.32
2019-04-10T16:34:39.538Z,47.42
2019-04-10T16:36:50.086Z,47.84
2019-04-10T16:39:00.916Z,48.27
2019-04-10T16:41:12.211Z,48.55
2019-04-10T16:43:20.221Z,48.90
2019-04-10T16:45:28.450Z,48.90
2019-04-10T16:47:36.536Z,49.09
2019-04-10T16:49:44.882Z,48.63
2019-04-10T16:51:53.927Z,48.18
2019-04-10T16:54:04.291Z,48.06
2019-04-10T16:56:13.522Z,48.32
2019-04-10T16:58:24.128Z,48.42
2019-04-10T17:00:35.338Z,48.75
2019-04-10T17:02:44.781Z,49.36
2019-04-10T17:04:52.948Z,49.58
2019-04-10T17:07:00.866Z,49.88
2019-04-10T17:09:12.252Z,49.92
2019-04-10T17:11:20.913Z,50.34
2019-04-10T17:13:28.773Z,50.53
2019-04-10T17:15:37.275Z,51.17
2019-04-10T17:17:47.416Z,51.62
2019-04-10T17:19:58.983Z,51.82
2019-04-10T17:22:07.018Z,52.56
2019-04-10T17:24:15.373Z,52.74
2019-04-10T17:26:22.710Z,53.18
2019-04-10T17:28:32.625Z,53.71
2019-04-10T17:31:02.349Z,53.86
2019-04-10T17:33:11.040Z,54.25
2019-04-10T17:35:21.369Z,54.61
2019-04-10T17:37:32.324Z,55.02
2019-04-10T17:39:41.675Z,55.02
2019-04-10T17:41:57.822Z,55.47
2019-04-10T17:44:07.617Z,55.74
2019-04-10T17:46:17.515Z,55.80
2019-04-10T17:48:25.914Z,55.92
2019-04-10T17:50:35.079Z,56.21
2019-04-10T17:52:43.187Z,56.19
2019-04-10T17:54:51.256Z,56.34
2019-04-10T17:56:57.978Z,56.20
2019-04-10T17:59:05.897Z,56.47
2019-04-10T18:01:14.571Z,56.47
2019-04-10T18:03:21.877Z,56.53
2019-04-10T18:05:29.467Z,56.71
2019-04-10T18:07:36.448Z,56.57
2019-04-10T18:09:44.375Z,56.74
2019-04-10T18:11:51.457Z,56.71
2019-04-10T18:14:00.790Z,56.75
2019-04-10T18:16:08.453Z,57.12
2019-04-10T18:18:15.869Z,57.00
2019-04-10T18:20:26.156Z,56.96
2019-04-10T18:22:34.746Z,57.17
2019-04-10T18:24:45.923Z,57.38
2019-04-10T18:26:55.325Z,57.73
2019-04-10T18:29:05.995Z,58.20
2019-04-10T18:31:16.636Z,58.29
2019-04-10T18:33:30.754Z,58.44
2019-04-10T18:35:40.819Z,58.64
2019-04-10T18:37:49.353Z,58.98
2019-04-10T18:40:01.214Z,59.36
2019-04-10T18:42:13.881Z,59.54
2019-04-10T18:44:22.850Z,59.85
2019-04-10T18:48:46.664Z,61.05
2019-04-10T18:50:54.520Z,61.03
2019-04-10T18:53:03.722Z,60.86
2019-04-10T18:55:14.244Z,61.10
2019-04-10T18:57:26.079Z,61.29
2019-04-10T19:00:06.003Z,61.39
2019-04-10T19:02:17.928Z,61.47
2019-04-10T19:04:43.355Z,61.87
2019-04-10T19:06:53.103Z,61.94
2019-04-10T19:09:10.158Z,62.28
2019-04-10T19:11:21.316Z,62.54
2019-04-10T19:13:24.742Z,62.75
2019-04-10T19:15:32.845Z,63.29
2019-04-10T19:17:40.537Z,63.13
2019-04-10T19:19:48.957Z,63.37
2019-04-10T19:21:56.065Z,63.57
2019-04-10T19:24:03.724Z,63.85
2019-04-10T19:26:13.875Z,64.35
2019-04-10T19:28:30.117Z,64.42
2019-04-10T19:30:35.400Z,64.67
2019-04-10T19:32:43.720Z,64.62
2019-04-10T19:34:51.818Z,64.87
2019-04-10T19:36:58.885Z,65.09
2019-04-10T19:39:09.732Z,65.43
2019-04-10T19:41:25.087Z,65.74
2019-04-10T19:43:28.937Z,66.06
2019-04-10T19:45:36.314Z,66.20
2019-04-10T19:47:44.363Z,66.30
2019-04-10T19:49:51.378Z,66.40
2019-04-10T19:51:58.597Z,66.41
2019-04-10T19:54:07.426Z,66.83
2019-04-10T19:56:14.695Z,66.76
2019-04-10T19:58:21.967Z,67.30
2019-04-10T20:00:30.579Z,67.26
2019-04-10T20:02:40.187Z,67.38
2019-04-10T20:04:48.888Z,67.73
2019-04-10T20:06:56.474Z,67.77
2019-04-10T20:09:04.185Z,67.80
2019-04-10T20:11:11.395Z,68.08
2019-04-10T20:13:19.067Z,67.91
2019-04-10T20:15:26.742Z,68.62
2019-04-10T20:17:33.906Z,69.05
2019-04-10T20:19:42.546Z,69.58
2019-04-10T20:21:50.360Z,69.92
2019-04-10T20:23:58.577Z,70.10
2019-04-10T20:26:07.063Z,70.34
2019-04-10T20:28:14.863Z,70.80
2019-04-10T20:30:23.714Z,70.96
2019-04-10T20:32:32.148Z,71.49
2019-04-10T20:34:39.895Z,71.53
2019-04-10T20:36:49.086Z,71.85
2019-04-10T20:38:56.831Z,72.06
2019-04-10T20:41:04.614Z,71.99
2019-04-10T20:43:13.037Z,72.49
2019-04-10T20:45:23.146Z,72.87
2019-04-10T20:47:30.943Z,72.84
2019-04-10T20:49:38.562Z,72.98
2019-04-10T20:51:45.994Z,73.30
2019-04-10T20:53:53.865Z,73.31
2019-04-10T20:56:02.359Z,73.94
2019-04-10T20:58:09.959Z,73.97
2019-04-10T21:00:32.704Z,74.05
2019-04-10T21:02:39.492Z,74.45
2019-04-10T21:04:54.660Z,74.31
2019-04-10T21:06:54.661Z,74.67
2019-04-10T21:09:01.166Z,74.74
2019-04-10T21:11:09.640Z,75.00
2019-04-10T21:13:17.063Z,75.48
2019-04-10T21:15:24.210Z,75.55
2019-04-10T21:17:31.929Z,75.55
2019-04-10T21:19:38.848Z,75.74
2019-04-10T21:21:46.664Z,76.27
2019-04-10T21:23:54.369Z,76.08
2019-04-10T21:26:01.337Z,76.43
2019-04-10T21:28:08.224Z,76.51
2019-04-10T21:30:15.723Z,76.46
2019-04-10T21:32:34.579Z,76.82
2019-04-10T21:34:43.081Z,77.31
2019-04-10T21:36:50.979Z,77.48
2019-04-10T21:39:00.954Z,77.35
2019-04-10T21:41:12.030Z,77.46
2019-04-10T21:43:18.563Z,77.72
2019-04-10T21:45:26.550Z,77.77
2019-04-10T21:47:33.535Z,78.13
2019-04-10T21:49:40.063Z,78.24
2019-04-10T21:51:47.375Z,78.38
2019-04-10T21:53:55.942Z,78.41
2019-04-10T21:56:04.164Z,78.59
2019-04-10T21:58:13.105Z,79.17
2019-04-10T22:00:22.720Z,79.41
2019-04-10T22:02:31.635Z,79.44
2019-04-10T22:04:39.193Z,79.82
2019-04-10T22:06:49.414Z,79.76
2019-04-10T22:09:01.883Z,80.08
2019-04-10T22:11:10.239Z,80.28
2019-04-10T22:13:17.208Z,80.34
2019-04-10T22:15:31.278Z,80.75
2019-04-10T22:17:38.354Z,80.76
2019-04-10T22:19:45.340Z,80.86
2019-04-10T22:21:51.958Z,80.97
2019-04-10T22:23:59.319Z,81.15
2019-04-10T22:26:06.097Z,81.24
2019-04-10T22:28:13.007Z,81.68
2019-04-10T22:30:21.195Z,81.60
2019-04-10T22:32:29.318Z,81.83
2019-04-10T22:34:36.400Z,82.03
2019-04-10T22:36:44.931Z,82.11
2019-04-10T22:38:51.887Z,82.13
2019-04-10T22:40:58.258Z,82.34
2019-04-10T22:43:05.778Z,82.63
2019-04-10T22:45:29.236Z,82.87
2019-04-10T22:47:36.895Z,82.89
2019-04-10T22:49:43.478Z,83.50
2019-04-10T22:51:51.825Z,83.75
2019-04-10T22:54:02.065Z,83.82
2019-04-10T22:56:08.905Z,83.54
2019-04-10T22:58:15.668Z,83.66
2019-04-10T23:00:24.519Z,84.29
2019-04-10T23:02:31.974Z,84.29
2019-04-10T23:04:39.145Z,84.38
2019-04-10T23:06:47.495Z,84.41
2019-04-10T23:08:54.158Z,84.53
2019-04-10T23:11:01.474Z,85.17
2019-04-10T23:13:08.900Z,85.26
2019-04-10T23:15:17.627Z,85.27
2019-04-10T23:17:24.366Z,85.34
2019-04-10T23:19:31.079Z,85.33
2019-04-10T23:21:39.070Z,85.58
2019-04-10T23:23:45.858Z,85.54
2019-04-10T23:25:53.073Z,85.79
2019-04-10T23:28:01.012Z,85.82
2019-04-10T23:30:14.910Z,85.70
2019-04-10T23:32:23.536Z,85.73
2019-04-10T23:34:30.530Z,85.99
2019-04-10T23:36:38.154Z,86.00
2019-04-10T23:38:45.803Z,85.97
2019-04-10T23:40:53.490Z,86.17
2019-04-10T23:43:08.093Z,86.35
2019-04-10T23:45:17.647Z,86.34
2019-04-10T23:47:28.912Z,86.40
2019-04-10T23:49:35.604Z,86.34
2019-04-10T23:51:43.228Z,86.46
2019-04-10T23:53:50.922Z,86.49
2019-04-10T23:55:58.718Z,86.50
2019-04-10T23:58:06.167Z,86.47
